createdAt,value
2019-02-16T00:02:01.783Z,7.03
2019-02-16T00:04:33.055Z,7.02
2019-02-16T00:07:04.238Z,7.01
2019-02-16T00:09:35.519Z,6.99
2019-02-16T00:12:06.410Z,6.97
2019-02-16T00:14:37.644Z,6.96
2019-02-16T00:17:08.847Z,6.94
2019-02-16T00:19:40.065Z,6.92
2019-02-16T00:22:11.230Z,6.90
2019-02-16T00:24:42.431Z,6.89
2019-02-16T00:27:13.621Z,6.87
2019-02-16T00:29:44.952Z,6.85
2019-02-16T00:32:16.129Z,6.82
2019-02-16T00:34:47.331Z,6.82
2019-02-16T00:37:18.516Z,6.79
2019-02-16T00:39:49.682Z,6.78
2019-02-16T00:42:20.896Z,6.76
2019-02-16T00:44:52.062Z,6.73
2019-02-16T00:47:23.233Z,6.71
2019-02-16T00:49:54.451Z,6.70
2019-02-16T00:52:25.637Z,6.69
2019-02-16T00:54:56.809Z,6.68
2019-02-16T00:57:28.020Z,6.66
2019-02-16T00:59:59.278Z,6.64
2019-02-16T01:02:30.539Z,6.63
2019-02-16T01:05:01.800Z,6.61
2019-02-16T01:07:33.086Z,6.59
2019-02-16T01:10:04.480Z,6.59
2019-02-16T01:12:35.800Z,6.57
2019-02-16T01:15:08.933Z,6.54
2019-02-16T01:17:40.136Z,6.54
2019-02-16T01:20:14.060Z,6.51
2019-02-16T01:22:45.244Z,6.49
2019-02-16T01:25:16.381Z,6.47
2019-02-16T01:27:47.727Z,6.45
2019-02-16T01:30:18.908Z,6.44
2019-02-16T01:32:50.229Z,6.42
2019-02-16T01:35:21.441Z,6.39
2019-02-16T01:37:52.814Z,6.37
2019-02-16T01:40:24.019Z,6.36
2019-02-16T01:42:55.463Z,6.35
2019-02-16T01:45:26.667Z,6.31
2019-02-16T01:47:57.910Z,6.30
2019-02-16T01:50:29.098Z,6.27
2019-02-16T01:53:00.487Z,6.26
2019-02-16T01:55:31.664Z,6.26
2019-02-16T01:58:03.008Z,6.24
2019-02-16T02:00:34.189Z,6.22
2019-02-16T02:03:05.517Z,6.21
2019-02-16T02:05:36.725Z,6.18
2019-02-16T02:08:07.915Z,6.15
2019-02-16T02:10:39.479Z,6.14
2019-02-16T02:13:11.190Z,6.13
2019-02-16T02:15:42.364Z,6.11
2019-02-16T02:18:13.730Z,6.12
2019-02-16T02:20:45.109Z,6.08
2019-02-16T02:23:16.388Z,6.05
2019-02-16T02:25:47.705Z,6.03
2019-02-16T02:28:18.882Z,6.01
2019-02-16T02:30:50.170Z,5.98
2019-02-16T02:33:21.403Z,5.96
2019-02-16T02:35:52.614Z,5.93
2019-02-16T02:38:23.809Z,5.91
2019-02-16T02:40:55.091Z,5.89
2019-02-16T02:43:27.469Z,5.86
2019-02-16T02:45:58.638Z,5.84
2019-02-16T02:48:29.851Z,5.82
2019-02-16T02:51:01.034Z,5.80
2019-02-16T02:53:32.220Z,5.79
2019-02-16T02:56:03.460Z,5.76
2019-02-16T02:58:34.656Z,5.76
2019-02-16T03:01:05.942Z,5.73
2019-02-16T03:03:38.249Z,5.72
2019-02-16T03:06:09.492Z,5.71
2019-02-16T03:08:40.795Z,5.70
2019-02-16T03:11:12.121Z,5.68
2019-02-16T03:13:43.539Z,5.66
2019-02-16T03:16:14.767Z,5.64
2019-02-16T03:18:46.002Z,5.62
2019-02-16T03:21:17.206Z,5.60
2019-02-16T03:23:48.416Z,5.58
2019-02-16T03:27:09.611Z,5.55
2019-02-16T03:30:08.645Z,5.52
2019-02-16T03:33:16.086Z,5.50
2019-02-16T03:36:27.584Z,5.47
2019-02-16T03:39:04.441Z,5.44
2019-02-16T03:41:35.830Z,5.41
2019-02-16T03:44:07.113Z,5.39
2019-02-16T03:46:38.390Z,5.36
2019-02-16T03:49:09.693Z,5.32
2019-02-16T03:51:40.941Z,5.28
2019-02-16T03:54:12.235Z,5.26
2019-02-16T03:56:43.462Z,5.23
2019-02-16T03:59:14.704Z,5.21
2019-02-16T04:01:45.911Z,5.18
2019-02-16T04:04:17.100Z,5.18
2019-02-16T04:06:48.384Z,5.13
2019-02-16T04:09:19.581Z,5.12
2019-02-16T04:11:57.087Z,5.10
2019-02-16T04:14:28.284Z,5.07
2019-02-16T04:16:59.507Z,5.05
2019-02-16T04:19:30.716Z,5.04
2019-02-16T04:22:01.903Z,5.03
2019-02-16T04:24:33.298Z,5.01
2019-02-16T04:27:04.537Z,4.99
2019-02-16T04:29:35.830Z,4.98
2019-02-16T04:32:08.141Z,4.96
2019-02-16T04:34:39.437Z,4.95
2019-02-16T04:37:10.755Z,4.93
2019-02-16T04:39:41.952Z,4.92
2019-02-16T04:42:13.237Z,4.90
2019-02-16T04:44:44.506Z,4.86
2019-02-16T04:47:17.009Z,4.86
2019-02-16T04:49:49.846Z,4.84
2019-02-16T04:52:21.017Z,4.81
2019-02-16T04:54:52.160Z,4.79
2019-02-16T04:57:23.483Z,4.76
2019-02-16T04:59:54.803Z,4.73
2019-02-16T05:02:25.980Z,4.69
2019-02-16T05:04:57.267Z,4.68
2019-02-16T05:07:28.542Z,4.64
2019-02-16T05:09:59.786Z,4.62
2019-02-16T05:12:31.003Z,4.60
2019-02-16T05:15:02.178Z,4.58
2019-02-16T05:17:33.393Z,4.54
2019-02-16T05:20:04.638Z,4.51
2019-02-16T05:22:44.205Z,4.50
2019-02-16T05:25:08.698Z,4.48
2019-02-16T05:27:39.920Z,4.44
2019-02-16T05:30:11.140Z,4.42
2019-02-16T05:32:42.319Z,4.39
2019-02-16T05:35:13.581Z,4.37
2019-02-16T05:37:44.748Z,4.33
2019-02-16T05:40:16.006Z,4.33
2019-02-16T05:42:47.211Z,4.30
2019-02-16T05:45:18.424Z,4.30
2019-02-16T05:47:50.579Z,4.28
2019-02-16T05:50:21.798Z,4.26
2019-02-16T05:52:54.643Z,4.24
2019-02-16T05:55:26.049Z,4.23
2019-02-16T05:57:57.222Z,4.19
2019-02-16T06:00:30.423Z,4.13
2019-02-16T06:03:01.616Z,4.13
2019-02-16T06:05:32.779Z,4.17
2019-02-16T06:08:04.154Z,4.09
2019-02-16T06:10:35.276Z,4.11
2019-02-16T06:13:06.508Z,4.11
2019-02-16T06:15:38.042Z,4.09
2019-02-16T06:18:09.331Z,4.07
2019-02-16T06:20:40.502Z,4.05
2019-02-16T06:23:11.687Z,4.04
2019-02-16T06:25:42.972Z,4.02
2019-02-16T06:28:14.169Z,4.01
2019-02-16T06:30:45.467Z,3.99
2019-02-16T06:33:16.666Z,3.92
2019-02-16T06:35:53.954Z,3.92
2019-02-16T06:38:25.276Z,3.97
2019-02-16T06:40:56.581Z,3.96
2019-02-16T06:43:27.783Z,3.91
2019-02-16T06:46:00.776Z,3.91
2019-02-16T06:48:31.890Z,3.95
2019-02-16T06:51:03.109Z,3.92
2019-02-16T06:53:34.270Z,3.92
2019-02-16T06:56:27.614Z,3.98
2019-02-16T06:58:58.818Z,3.99
2019-02-16T07:01:30.080Z,4.02
2019-02-16T07:04:01.342Z,4.05
2019-02-16T07:06:32.642Z,4.07
2019-02-16T07:09:05.340Z,4.11
2019-02-16T07:11:36.542Z,4.13
2019-02-16T07:14:10.258Z,4.14
2019-02-16T07:16:51.672Z,4.14
2019-02-16T07:19:25.884Z,4.22
2019-02-16T07:21:57.141Z,4.29
2019-02-16T07:24:28.498Z,4.29
2019-02-16T07:26:59.886Z,4.33
2019-02-16T07:29:31.169Z,4.38
2019-02-16T07:32:02.398Z,4.41
2019-02-16T07:34:33.594Z,4.42
2019-02-16T07:37:04.735Z,4.49
2019-02-16T07:39:35.975Z,4.54
2019-02-16T07:42:07.232Z,4.59
2019-02-16T07:45:10.197Z,4.63
2019-02-16T07:47:57.064Z,4.67
2019-02-16T07:50:36.559Z,4.73
2019-02-16T07:53:14.526Z,4.77
2019-02-16T07:55:49.793Z,4.82
2019-02-16T07:58:46.106Z,4.87
2019-02-16T08:01:23.346Z,4.92
2019-02-16T08:04:13.587Z,4.98
2019-02-16T08:06:53.567Z,5.03
2019-02-16T08:09:33.627Z,5.10
2019-02-16T08:12:20.930Z,5.14
2019-02-16T08:15:06.149Z,5.21
2019-02-16T08:17:55.339Z,5.27
2019-02-16T08:20:34.088Z,5.34
2019-02-16T08:23:27.306Z,5.40
2019-02-16T08:26:16.313Z,5.44
2019-02-16T08:29:25.612Z,5.52
2019-02-16T08:32:13.014Z,5.58
2019-02-16T08:34:58.906Z,5.66
2019-02-16T08:37:52.959Z,5.72
2019-02-16T08:40:37.801Z,5.77
2019-02-16T08:43:34.839Z,5.87
2019-02-16T08:46:31.185Z,5.93
2019-02-16T08:49:21.527Z,6.00
2019-02-16T08:52:11.670Z,6.09
2019-02-16T08:54:59.177Z,6.18
2019-02-16T08:57:48.577Z,6.27
2019-02-16T09:00:36.887Z,6.35
2019-02-16T09:03:27.043Z,6.43
2019-02-16T09:06:06.582Z,6.51
2019-02-16T09:08:55.685Z,6.59
2019-02-16T09:11:48.106Z,6.66
2019-02-16T09:14:41.209Z,6.74
2019-02-16T09:17:30.143Z,6.82
2019-02-16T09:20:19.061Z,6.91
2019-02-16T09:23:06.626Z,7.01
2019-02-16T09:26:08.841Z,7.11
2019-02-16T09:28:59.056Z,7.19
2019-02-16T09:31:48.224Z,7.30
2019-02-16T09:34:45.927Z,7.41
2019-02-16T09:37:39.001Z,7.51
2019-02-16T09:40:32.030Z,7.62
2019-02-16T09:43:17.237Z,7.71
2019-02-16T09:46:06.131Z,7.83
2019-02-16T09:49:11.420Z,7.94
2019-02-16T09:51:54.541Z,8.07
2019-02-16T09:54:42.377Z,8.20
2019-02-16T09:57:35.571Z,8.32
2019-02-16T10:00:26.233Z,8.44
2019-02-16T10:03:10.438Z,8.55
2019-02-16T10:05:58.403Z,8.66
2019-02-16T10:08:47.329Z,8.78
2019-02-16T10:11:24.217Z,8.90
2019-02-16T10:14:33.067Z,9.01
2019-02-16T10:17:11.806Z,9.13
2019-02-16T10:19:49.952Z,9.26
2019-02-16T10:22:37.515Z,9.39
2019-02-16T10:25:33.905Z,9.51
2019-02-16T10:28:33.639Z,9.63
2019-02-16T10:31:26.973Z,9.75
2019-02-16T10:34:14.656Z,9.87
2019-02-16T10:36:56.565Z,9.99
2019-02-16T10:39:34.648Z,10.10
2019-02-16T10:42:22.618Z,10.20
2019-02-16T10:45:02.762Z,10.31
2019-02-16T10:47:50.470Z,10.42
2019-02-16T10:50:39.328Z,10.53
2019-02-16T10:53:29.560Z,10.66
2019-02-16T10:56:13.216Z,10.78
2019-02-16T10:59:03.338Z,10.88
2019-02-16T11:01:41.626Z,10.99
2019-02-16T11:04:37.883Z,11.11
2019-02-16T11:07:21.042Z,11.23
2019-02-16T11:10:20.167Z,11.36
2019-02-16T11:13:13.116Z,11.47
2019-02-16T11:16:01.873Z,11.56
2019-02-16T11:18:39.563Z,11.68
2019-02-16T11:21:36.606Z,11.78
2019-02-16T11:24:12.554Z,11.88
2019-02-16T11:26:57.004Z,11.98
2019-02-16T11:29:46.121Z,12.06
2019-02-16T11:32:39.351Z,12.16
2019-02-16T11:35:32.355Z,12.25
2019-02-16T11:38:12.101Z,12.31
2019-02-16T11:40:49.940Z,12.40
2019-02-16T11:43:41.038Z,12.47
2019-02-16T11:46:40.429Z,12.53
2019-02-16T11:49:36.695Z,12.61
2019-02-16T11:52:32.890Z,12.68
2019-02-16T11:55:41.411Z,12.75
2019-02-16T11:58:20.439Z,12.82
2019-02-16T12:01:10.710Z,12.92
2019-02-16T12:04:06.766Z,13.02
2019-02-16T12:07:03.144Z,13.10
2019-02-16T12:09:52.032Z,13.21
2019-02-16T12:12:41.040Z,13.31
2019-02-16T12:15:39.501Z,13.42
2019-02-16T12:18:23.431Z,13.54
2019-02-16T12:21:16.394Z,13.65
2019-02-16T12:24:09.545Z,13.76
2019-02-16T12:26:58.714Z,13.87
2019-02-16T12:29:38.616Z,13.99
2019-02-16T12:32:35.715Z,14.11
2019-02-16T12:35:29.210Z,14.22
2019-02-16T12:38:20.419Z,14.37
2019-02-16T12:41:29.145Z,14.51
2019-02-16T12:44:22.294Z,14.65
2019-02-16T12:47:05.153Z,14.81
2019-02-16T12:50:04.537Z,14.98
2019-02-16T12:53:06.813Z,15.13
2019-02-16T12:56:02.899Z,15.31
2019-02-16T12:58:59.189Z,15.51
2019-02-16T13:01:55.644Z,15.74
2019-02-16T13:04:58.123Z,16.02
2019-02-16T13:07:37.338Z,16.34
2019-02-16T13:10:19.994Z,16.75
2019-02-16T13:13:07.554Z,17.24
2019-02-16T13:15:53.294Z,17.86
2019-02-16T13:18:44.438Z,18.62
2019-02-16T13:21:30.526Z,19.39
2019-02-16T13:24:11.622Z,20.18
2019-02-16T13:27:01.867Z,20.91
2019-02-16T13:29:52.016Z,21.55
2019-02-16T13:32:51.062Z,22.15
2019-02-16T13:35:39.660Z,22.75
2019-02-16T13:38:33.938Z,23.25
2019-02-16T13:41:10.615Z,23.61
2019-02-16T13:44:04.700Z,23.77
2019-02-16T13:47:04.053Z,23.75
2019-02-16T13:49:41.076Z,23.57
2019-02-16T13:52:18.044Z,23.30
2019-02-16T13:55:15.728Z,23.12
2019-02-16T13:58:14.845Z,23.28
2019-02-16T14:01:23.195Z,23.63
2019-02-16T14:04:09.119Z,24.05
2019-02-16T14:06:47.855Z,24.59
2019-02-16T14:09:35.727Z,25.11
2019-02-16T14:12:25.944Z,25.61
2019-02-16T14:15:31.426Z,26.15
2019-02-16T14:18:02.651Z,26.65
2019-02-16T14:20:33.865Z,27.15
2019-02-16T14:23:05.109Z,28.26
2019-02-16T14:25:46.685Z,28.15
2019-02-16T14:28:17.954Z,28.36
2019-02-16T14:30:49.163Z,28.61
2019-02-16T14:33:20.409Z,28.79
2019-02-16T14:35:51.611Z,28.98
2019-02-16T14:38:40.277Z,29.19
2019-02-16T14:41:11.482Z,29.38
2019-02-16T14:43:42.694Z,29.46
2019-02-16T14:46:13.887Z,29.57
2019-02-16T14:48:45.181Z,29.63
2019-02-16T14:51:17.250Z,29.56
2019-02-16T14:53:48.911Z,29.34
2019-02-16T14:56:20.411Z,28.91
2019-02-16T14:58:51.775Z,28.56
2019-02-16T15:01:24.439Z,28.26
2019-02-16T15:03:56.178Z,28.06
2019-02-16T15:06:28.395Z,27.89
2019-02-16T15:09:00.292Z,27.72
2019-02-16T15:11:33.959Z,27.57
2019-02-16T15:14:05.769Z,27.45
2019-02-16T15:16:37.267Z,27.28
2019-02-16T15:19:09.556Z,26.97
2019-02-16T15:21:40.725Z,26.58
2019-02-16T15:24:11.920Z,26.19
2019-02-16T15:26:43.141Z,25.79
2019-02-16T15:29:14.323Z,25.43
2019-02-16T15:31:45.684Z,25.11
2019-02-16T15:34:16.945Z,24.88
2019-02-16T15:36:48.172Z,24.74
2019-02-16T15:39:19.337Z,24.60
2019-02-16T15:41:50.641Z,24.48
2019-02-16T15:44:22.247Z,24.28
2019-02-16T15:46:53.536Z,24.00
2019-02-16T15:49:24.831Z,23.67
2019-02-16T15:51:56.039Z,23.29
2019-02-16T15:54:27.308Z,22.91
2019-02-16T15:56:58.527Z,22.52
2019-02-16T15:59:35.264Z,22.15
2019-02-16T16:02:03.283Z,21.73
2019-02-16T16:04:34.528Z,21.33
2019-02-16T16:07:11.106Z,20.97
2019-02-16T16:10:15.022Z,20.64
2019-02-16T16:12:59.108Z,20.28
2019-02-16T16:15:55.147Z,19.93
2019-02-16T16:18:51.147Z,19.59
2019-02-16T16:21:41.602Z,19.23
2019-02-16T16:24:25.531Z,18.97
2019-02-16T16:27:34.135Z,18.73
2019-02-16T16:30:14.836Z,18.53
2019-02-16T16:32:54.492Z,18.36
2019-02-16T16:35:46.810Z,18.20
2019-02-16T16:38:52.276Z,18.07
2019-02-16T16:41:42.579Z,17.92
2019-02-16T16:44:37.285Z,17.76
2019-02-16T16:47:39.250Z,17.60
2019-02-16T16:50:30.060Z,17.42
2019-02-16T16:53:38.894Z,17.23
2019-02-16T16:56:30.246Z,17.10
2019-02-16T16:59:32.575Z,16.96
2019-02-16T17:02:28.906Z,16.85
2019-02-16T17:05:25.376Z,16.73
2019-02-16T17:08:07.814Z,16.62
2019-02-16T17:11:04.139Z,16.50
2019-02-16T17:14:03.370Z,16.38
2019-02-16T17:16:50.019Z,16.27
2019-02-16T17:19:30.036Z,16.14
2019-02-16T17:22:12.119Z,16.01
2019-02-16T17:25:01.207Z,15.91
2019-02-16T17:27:54.100Z,15.78
2019-02-16T17:30:48.090Z,15.64
2019-02-16T17:33:47.162Z,15.53
2019-02-16T17:36:36.049Z,15.41
2019-02-16T17:39:17.921Z,15.28
2019-02-16T17:42:05.768Z,15.18
2019-02-16T17:44:57.244Z,15.06
2019-02-16T17:47:46.333Z,14.96
2019-02-16T17:50:27.810Z,14.86
2019-02-16T17:53:11.544Z,14.76
2019-02-16T17:56:06.528Z,14.66
2019-02-16T17:58:46.672Z,14.56
2019-02-16T18:01:37.011Z,14.45
2019-02-16T18:04:33.407Z,14.36
2019-02-16T18:07:35.604Z,14.23
2019-02-16T18:10:15.687Z,14.09
2019-02-16T18:13:06.053Z,13.94
2019-02-16T18:15:59.350Z,13.82
2019-02-16T18:18:55.743Z,13.68
2019-02-16T18:21:52.016Z,13.50
2019-02-16T18:24:29.775Z,13.36
2019-02-16T18:27:21.216Z,13.19
2019-02-16T18:30:07.795Z,13.08
2019-02-16T18:32:56.864Z,12.93
2019-02-16T18:35:41.893Z,12.81
2019-02-16T18:38:35.670Z,12.72
2019-02-16T18:41:31.994Z,12.62
2019-02-16T18:44:21.359Z,12.52
2019-02-16T18:47:11.816Z,12.41
2019-02-16T18:49:50.566Z,12.32
2019-02-16T18:52:41.140Z,12.20
2019-02-16T18:55:27.539Z,12.10
2019-02-16T18:58:04.618Z,12.00
2019-02-16T19:00:52.251Z,11.90
2019-02-16T19:04:00.779Z,11.79
2019-02-16T19:06:49.838Z,11.70
2019-02-16T19:12:52.115Z,11.52
2019-02-16T19:15:42.427Z,11.42
2019-02-16T19:18:38.315Z,11.30
2019-02-16T19:21:16.672Z,11.20
2019-02-16T19:23:59.854Z,11.11
2019-02-16T19:26:48.724Z,11.05
2019-02-16T19:29:38.945Z,10.98
2019-02-16T19:32:32.229Z,10.90
2019-02-16T19:35:25.469Z,10.84
2019-02-16T19:38:11.584Z,10.78
2019-02-16T19:40:58.461Z,10.72
2019-02-16T19:43:41.226Z,10.67
2019-02-16T19:46:34.449Z,10.59
2019-02-16T19:49:27.489Z,10.53
2019-02-16T19:52:17.724Z,10.48
2019-02-16T19:54:57.631Z,10.41
2019-02-16T19:57:42.412Z,10.33
2019-02-16T20:00:35.975Z,10.28
2019-02-16T20:03:24.068Z,10.24
2019-02-16T20:06:12.984Z,10.19
2019-02-16T20:09:02.135Z,10.14
2019-02-16T20:11:43.076Z,10.07
2019-02-16T20:14:26.957Z,9.99
2019-02-16T20:17:15.893Z,9.90
2019-02-16T20:20:06.324Z,9.84
2019-02-16T20:22:59.434Z,9.77
2019-02-16T20:25:50.002Z,9.71
2019-02-16T20:28:42.030Z,9.66
2019-02-16T20:31:32.290Z,9.61
2019-02-16T20:34:19.365Z,9.56
2019-02-16T20:36:58.554Z,9.48
2019-02-16T20:39:49.051Z,9.42
2019-02-16T20:42:57.459Z,9.37
2019-02-16T20:45:40.650Z,9.32
2019-02-16T20:48:49.183Z,9.26
2019-02-16T20:51:49.024Z,9.21
2019-02-16T20:54:26.124Z,9.15
2019-02-16T20:57:16.087Z,9.08
2019-02-16T20:59:59.236Z,9.03
2019-02-16T21:02:55.839Z,8.97
2019-02-16T21:05:42.053Z,8.91
2019-02-16T21:08:38.246Z,8.87
2019-02-16T21:11:27.556Z,8.80
2019-02-16T21:14:08.038Z,8.76
2019-02-16T21:16:56.793Z,8.71
2019-02-16T21:19:46.166Z,8.67
2019-02-16T21:22:56.159Z,8.63
2019-02-16T21:25:46.431Z,8.60
2019-02-16T21:28:37.226Z,8.53
2019-02-16T21:31:32.927Z,8.49
2019-02-16T21:34:12.385Z,8.43
2019-02-16T21:37:12.000Z,8.36
2019-02-16T21:39:57.252Z,8.30
2019-02-16T21:42:46.274Z,8.25
2019-02-16T21:45:32.179Z,8.23
2019-02-16T21:48:40.536Z,8.18
2019-02-16T21:51:34.513Z,8.15
2019-02-16T21:54:27.985Z,8.10
2019-02-16T21:57:09.256Z,8.06
2019-02-16T22:00:04.579Z,8.01
2019-02-16T22:02:58.417Z,7.98
2019-02-16T22:05:46.640Z,7.93
2019-02-16T22:08:32.435Z,7.88
2019-02-16T22:11:16.651Z,7.86
2019-02-16T22:13:48.021Z,7.81
2019-02-16T22:16:19.745Z,7.77
2019-02-16T22:18:51.124Z,7.73
2019-02-16T22:21:23.404Z,7.69
2019-02-16T22:23:54.634Z,7.66
2019-02-16T22:26:25.904Z,7.63
2019-02-16T22:28:57.159Z,7.59
2019-02-16T22:31:28.787Z,7.54
2019-02-16T22:34:00.135Z,7.53
2019-02-16T22:36:31.627Z,7.50
2019-02-16T22:39:02.839Z,7.45
2019-02-16T22:41:34.468Z,7.39
2019-02-16T22:44:05.721Z,7.36
2019-02-16T22:46:36.914Z,7.32
2019-02-16T22:49:08.060Z,7.30
2019-02-16T22:51:39.388Z,7.28
2019-02-16T22:54:10.576Z,7.24
2019-02-16T22:56:41.767Z,7.20
2019-02-16T22:59:13.032Z,7.16
2019-02-16T23:01:44.192Z,7.12
2019-02-16T23:04:15.560Z,7.08
2019-02-16T23:06:46.951Z,7.06
2019-02-16T23:09:30.541Z,7.04
2019-02-16T23:12:01.784Z,7.03
2019-02-16T23:14:34.054Z,6.99
2019-02-16T23:17:05.537Z,6.98
2019-02-16T23:19:36.663Z,6.94
2019-02-16T23:22:07.902Z,6.91
2019-02-16T23:24:39.173Z,6.89
2019-02-16T23:27:10.421Z,6.85
2019-02-16T23:29:41.833Z,6.84
2019-02-16T23:32:14.037Z,6.83
2019-02-16T23:34:45.181Z,6.81
2019-02-16T23:37:16.443Z,6.80
2019-02-16T23:39:47.725Z,6.77
2019-02-16T23:42:18.896Z,6.75
2019-02-16T23:44:50.051Z,6.73
2019-02-16T23:47:21.231Z,6.70
2019-02-16T23:49:52.423Z,6.68
2019-02-16T23:52:25.161Z,6.65
2019-02-16T23:54:56.602Z,6.61
2019-02-16T23:57:27.799Z,6.56
2019-02-16T23:59:58.969Z,6.54
